Time;durP1;ratioP1;P1;durP2;ratioP2;P2;SDS_P1;SDS_P2;PMS_P1;PMS_P2;Temp;Humidity;BMP_temperature;BMP_pressure;BME280_temperature;BME280_humidity;BME280_pressure;Samples;Min_cycle;Max_cycle;Signal;HPM_P1;HPM_P2
2021/12/31 00:01:06;;;;;;;1.80;1.70;;;11.60;99.90;;;;;;5092476;28;20548;-52
2021/12/31 00:03:31;;;;;;;1.95;1.50;;;11.60;99.90;;;;;;5094255;28;20028;-54
2021/12/31 00:05:57;;;;;;;1.67;1.58;;;11.60;99.90;;;;;;5068025;28;20036;-51
2021/12/31 00:08:23;;;;;;;1.75;1.65;;;11.60;99.90;;;;;;5085735;28;20043;-50
2021/12/31 00:10:48;;;;;;;2.10;1.45;;;11.60;99.90;;;;;;5093560;28;20039;-54
2021/12/31 00:13:14;;;;;;;6.05;1.80;;;11.60;99.90;;;;;;5094608;28;20515;-52
2021/12/31 00:15:40;;;;;;;2.65;1.45;;;11.60;99.90;;;;;;5094082;28;20016;-50
2021/12/31 00:18:05;;;;;;;1.50;1.40;;;11.50;99.90;;;;;;5094320;28;20038;-54
2021/12/31 00:20:32;;;;;;;1.30;1.20;;;11.50;99.90;;;;;;5094565;28;20028;-51
2021/12/31 00:25:25;;;;;;;4.45;1.42;;;11.60;99.90;;;;;;5093325;28;20032;-54
2021/12/31 00:27:51;;;;;;;1.60;1.50;;;11.50;99.90;;;;;;5092450;28;20016;-51
2021/12/31 00:30:17;;;;;;;1.77;1.60;;;11.50;99.90;;;;;;5092912;28;20012;-53
2021/12/31 00:32:43;;;;;;;3.17;1.60;;;11.40;99.90;;;;;;5093032;28;20428;-52
2021/12/31 00:35:09;;;;;;;4.25;1.33;;;11.40;99.90;;;;;;5093276;28;20024;-55
2021/12/31 00:37:36;;;;;;;1.52;1.42;;;11.40;99.90;;;;;;5093188;28;20016;-55
2021/12/31 00:40:05;;;;;;;3.65;1.35;;;11.40;99.90;;;;;;5093069;28;20137;-53
2021/12/31 00:42:31;;;;;;;2.15;1.20;;;11.40;99.90;;;;;;5092536;28;20032;-52
2021/12/31 00:44:56;;;;;;;1.35;1.35;;;11.50;99.90;;;;;;5074807;28;20032;-51
2021/12/31 00:47:22;;;;;;;1.48;1.38;;;11.40;99.90;;;;;;5092909;28;20032;-50
2021/12/31 00:49:48;;;;;;;1.50;1.40;;;11.40;99.90;;;;;;5092849;28;20078;-51
2021/12/31 00:52:15;;;;;;;3.42;1.38;;;11.30;99.90;;;;;;5092759;28;20024;-55
2021/12/31 00:54:40;;;;;;;1.40;1.30;;;11.40;99.90;;;;;;5093845;28;20496;-52
2021/12/31 00:57:06;;;;;;;4.47;1.50;;;11.40;99.90;;;;;;5093949;28;20020;-52
2021/12/31 00:59:33;;;;;;;1.58;1.33;;;11.40;99.90;;;;;;5093812;28;20027;-53
2021/12/31 01:02:00;;;;;;;1.35;1.25;;;11.40;99.90;;;;;;5092396;28;20364;-51
2021/12/31 01:04:26;;;;;;;1.52;1.42;;;11.40;99.90;;;;;;5092132;28;20040;-51
2021/12/31 01:06:52;;;;;;;1.33;1.33;;;11.30;99.90;;;;;;5091446;28;20020;-51
2021/12/31 01:09:18;;;;;;;1.85;1.35;;;11.40;99.90;;;;;;5091487;28;20103;-54
2021/12/31 01:11:47;;;;;;;1.20;1.20;;;11.30;99.90;;;;;;5091355;28;20534;-51
2021/12/31 01:14:28;;;;;;;1.20;1.20;;;11.30;99.90;;;;;;5091067;28;20028;-52
2021/12/31 01:17:09;;;;;;;1.83;1.73;;;11.30;99.90;;;;;;5091574;28;20012;-51
2021/12/31 01:19:46;;;;;;;1.95;1.80;;;11.30;99.90;;;;;;5091561;28;20352;-52
2021/12/31 01:22:27;;;;;;;1.60;1.50;;;11.20;99.90;;;;;;5074182;28;20058;-53
2021/12/31 01:24:52;;;;;;;4.05;1.60;;;11.20;99.90;;;;;;5093330;28;20073;-49
2021/12/31 01:27:18;;;;;;;1.77;1.67;;;11.20;99.90;;;;;;5092789;28;20024;-51
2021/12/31 01:29:44;;;;;;;6.68;1.92;;;11.20;99.90;;;;;;5093244;28;20482;-53
2021/12/31 01:32:10;;;;;;;3.20;1.70;;;11.20;99.90;;;;;;5073396;28;20060;-53
2021/12/31 01:34:37;;;;;;;2.40;2.20;;;11.20;99.90;;;;;;5092398;28;20032;-54
2021/12/31 01:37:03;;;;;;;2.47;2.28;;;11.20;99.90;;;;;;5092799;28;20024;-54
2021/12/31 01:39:29;;;;;;;2.47;2.25;;;11.20;99.90;;;;;;5092066;28;20085;-52
2021/12/31 01:41:58;;;;;;;2.78;2.42;;;11.20;99.90;;;;;;5092071;28;20479;-52
2021/12/31 01:44:29;;;;;;;3.80;2.22;;;11.20;99.90;;;;;;5089967;28;20052;-54
2021/12/31 01:46:59;;;;;;;5.07;3.70;;;11.20;99.90;;;;;;5089893;28;20055;-50
2021/12/31 01:49:38;;;;;;;2.65;2.30;;;11.10;99.90;;;;;;5090006;28;20024;-50
2021/12/31 01:52:06;;;;;;;5.47;2.70;;;11.10;99.90;;;;;;5089897;28;20024;-53
2021/12/31 01:54:33;;;;;;;2.70;2.50;;;11.20;99.90;;;;;;5089149;28;20036;-50
2021/12/31 01:57:02;;;;;;;2.90;2.60;;;11.20;99.90;;;;;;5090537;28;20378;-50
2021/12/31 01:59:29;;;;;;;2.53;2.42;;;11.20;99.90;;;;;;5091015;28;20048;-52
2021/12/31 02:01:59;;;;;;;2.90;2.70;;;11.20;99.90;;;;;;5092173;28;20024;-52
2021/12/31 02:04:27;;;;;;;2.75;2.55;;;11.20;99.90;;;;;;5092037;28;20020;-51
2021/12/31 02:06:53;;;;;;;2.72;2.53;;;11.20;99.90;;;;;;5089842;28;20408;-51
2021/12/31 02:09:18;;;;;;;2.72;2.53;;;11.20;99.90;;;;;;5091619;28;20031;-52
2021/12/31 02:11:44;;;;;;;2.80;2.60;;;11.20;99.90;;;;;;5091174;28;20027;-52
2021/12/31 02:14:10;;;;;;;2.92;2.70;;;11.30;99.90;;;;;;5089177;28;20016;-52
2021/12/31 02:16:35;;;;;;;2.60;2.40;;;11.20;99.90;;;;;;5092231;28;20054;-53
2021/12/31 02:19:16;;;;;;;2.45;2.25;;;11.20;99.90;;;;;;5092215;28;20456;-51
2021/12/31 02:21:45;;;;;;;2.97;2.35;;;11.30;99.90;;;;;;5091942;28;20245;-52
2021/12/31 02:24:13;;;;;;;2.78;1.95;;;11.30;99.90;;;;;;5091078;28;20116;-52
2021/12/31 02:26:39;;;;;;;3.35;2.33;;;11.20;99.90;;;;;;5091251;28;20038;-50
2021/12/31 02:29:05;;;;;;;6.30;2.30;;;11.20;99.90;;;;;;5091530;28;20020;-52
2021/12/31 02:31:30;;;;;;;2.10;2.00;;;11.20;99.90;;;;;;5073775;28;20031;-54
2021/12/31 02:33:56;;;;;;;2.42;2.15;;;11.20;99.90;;;;;;5091914;28;20047;-54
2021/12/31 02:36:27;;;;;;;4.35;2.65;;;11.20;99.90;;;;;;5090789;28;20039;-51
2021/12/31 02:38:53;;;;;;;4.75;2.20;;;11.20;99.90;;;;;;5089928;28;20112;-54
2021/12/31 02:41:18;;;;;;;2.58;2.38;;;11.10;99.90;;;;;;5090986;28;20103;-51
2021/12/31 02:43:44;;;;;;;3.88;2.30;;;11.20;99.90;;;;;;5091224;28;20028;-51
2021/12/31 02:46:10;;;;;;;2.60;2.40;;;11.10;99.90;;;;;;5092076;28;20089;-52
2021/12/31 02:48:36;;;;;;;2.40;2.20;;;11.10;99.90;;;;;;5090656;28;20517;-51
2021/12/31 02:51:02;;;;;;;4.40;2.40;;;11.10;99.90;;;;;;5072481;28;20028;-51
2021/12/31 02:53:39;;;;;;;2.38;2.17;;;11.00;99.90;;;;;;5071758;28;20020;-53
2021/12/31 02:56:08;;;;;;;2.55;2.35;;;11.00;99.90;;;;;;5090031;28;20127;-51
2021/12/31 02:58:34;;;;;;;2.33;2.13;;;11.00;99.90;;;;;;5090422;28;20380;-53
2021/12/31 03:01:02;;;;;;;3.03;2.72;;;11.00;99.90;;;;;;5090281;28;20383;-53
2021/12/31 03:03:30;;;;;;;2.53;2.33;;;11.00;99.90;;;;;;5090453;28;20085;-54
2021/12/31 03:05:56;;;;;;;7.53;2.72;;;10.90;99.90;;;;;;5090516;28;20078;-53
2021/12/31 03:08:33;;;;;;;2.45;2.25;;;10.90;99.90;;;;;;5090199;28;20421;-50
2021/12/31 03:11:01;;;;;;;2.72;2.50;;;10.90;99.90;;;;;;5091007;28;20491;-51
2021/12/31 03:13:29;;;;;;;7.20;2.28;;;11.00;99.90;;;;;;5090469;28;20057;-51
2021/12/31 03:15:57;;;;;;;4.28;2.28;;;10.90;99.90;;;;;;5088275;28;20024;-51
2021/12/31 03:18:23;;;;;;;2.40;2.20;;;11.00;99.90;;;;;;5089456;28;20038;-51
2021/12/31 03:21:06;;;;;;;2.58;2.38;;;11.00;99.90;;;;;;5088959;28;20487;-52
2021/12/31 03:23:32;;;;;;;2.88;2.67;;;11.00;99.90;;;;;;5088591;28;20028;-52
2021/12/31 03:25:59;;;;;;;3.50;2.78;;;10.90;99.90;;;;;;5091812;28;20491;-51
2021/12/31 03:28:26;;;;;;;2.28;2.13;;;10.90;99.90;;;;;;5092817;28;20411;-51
2021/12/31 03:30:52;;;;;;;2.95;2.15;;;10.90;99.90;;;;;;5094005;28;20368;-51
2021/12/31 03:33:19;;;;;;;3.33;2.30;;;10.90;99.90;;;;;;5094243;28;20021;-51
2021/12/31 03:35:45;;;;;;;8.07;2.15;;;10.90;99.90;;;;;;5093633;28;20035;-52
2021/12/31 03:38:12;;;;;;;2.40;2.20;;;10.90;99.90;;;;;;5093956;28;20039;-51
2021/12/31 03:40:38;;;;;;;2.10;2.00;;;10.90;99.90;;;;;;5093171;28;20016;-50
2021/12/31 03:43:03;;;;;;;2.40;2.20;;;10.90;99.90;;;;;;5093472;28;20008;-51
2021/12/31 03:45:29;;;;;;;2.45;2.25;;;11.00;99.90;;;;;;5092620;28;20042;-53
2021/12/31 03:47:55;;;;;;;2.65;2.45;;;10.90;99.90;;;;;;5093173;28;20499;-52
2021/12/31 03:50:21;;;;;;;1.77;1.67;;;10.90;99.90;;;;;;5093896;28;20100;-52
2021/12/31 03:52:47;;;;;;;2.40;2.30;;;10.90;99.90;;;;;;5093741;28;20024;-53
2021/12/31 03:55:12;;;;;;;2.72;2.53;;;10.90;99.90;;;;;;5092594;28;20576;-52
2021/12/31 03:57:39;;;;;;;4.00;2.10;;;10.90;99.90;;;;;;5093628;28;20066;-52
2021/12/31 04:00:06;;;;;;;2.38;2.20;;;11.00;99.90;;;;;;5074170;28;20558;-51
2021/12/31 04:02:32;;;;;;;4.38;2.17;;;11.00;99.90;;;;;;5091970;28;20552;-53
2021/12/31 04:04:58;;;;;;;4.13;2.13;;;10.90;99.90;;;;;;5093434;28;20278;-53
2021/12/31 04:07:23;;;;;;;4.07;2.50;;;11.00;99.90;;;;;;5092556;28;20027;-53
2021/12/31 04:09:49;;;;;;;4.22;2.28;;;10.90;99.90;;;;;;5092977;28;20089;-52
2021/12/31 04:12:15;;;;;;;3.63;3.33;;;10.90;99.90;;;;;;5092303;28;20067;-52
2021/12/31 04:14:41;;;;;;;4.43;2.53;;;11.00;99.90;;;;;;5073363;28;20028;-51
2021/12/31 04:17:06;;;;;;;3.47;2.15;;;11.00;99.90;;;;;;5093536;28;20012;-51
2021/12/31 04:19:32;;;;;;;2.78;2.00;;;11.00;99.90;;;;;;5092127;28;20024;-53
2021/12/31 04:21:58;;;;;;;2.85;2.15;;;11.00;99.90;;;;;;5092900;28;20058;-52
2021/12/31 04:24:40;;;;;;;2.20;2.10;;;11.00;99.90;;;;;;5091571;28;20028;-54
2021/12/31 04:27:06;;;;;;;2.45;1.77;;;10.90;99.90;;;;;;5093342;28;20439;-54
2021/12/31 04:29:31;;;;;;;2.63;2.42;;;10.90;99.90;;;;;;5091714;28;20056;-54
2021/12/31 04:31:57;;;;;;;2.63;2.30;;;10.80;99.90;;;;;;5091142;28;20027;-54
2021/12/31 04:34:22;;;;;;;3.05;2.53;;;10.80;99.90;;;;;;5092120;28;20479;-51
2021/12/31 04:36:48;;;;;;;4.10;2.78;;;10.70;99.90;;;;;;5091591;28;20539;-53
2021/12/31 04:39:14;;;;;;;3.30;3.00;;;10.80;99.90;;;;;;5092131;28;20110;-53
2021/12/31 04:41:39;;;;;;;2.67;2.38;;;10.80;99.90;;;;;;5092307;28;20071;-50
2021/12/31 04:44:05;;;;;;;2.65;2.45;;;10.80;99.90;;;;;;5092466;28;20051;-51
2021/12/31 04:46:31;;;;;;;4.25;2.60;;;10.70;99.90;;;;;;5092063;28;20028;-51
2021/12/31 04:48:56;;;;;;;2.38;2.28;;;10.80;99.90;;;;;;5092555;28;20043;-53
2021/12/31 04:51:22;;;;;;;2.58;2.20;;;10.80;99.90;;;;;;5091533;28;20063;-51
2021/12/31 04:53:47;;;;;;;2.45;2.20;;;10.80;99.90;;;;;;5091823;28;20462;-54
2021/12/31 04:56:13;;;;;;;2.65;2.25;;;10.80;99.90;;;;;;5091743;28;20032;-53
2021/12/31 04:58:39;;;;;;;4.75;2.42;;;10.80;99.90;;;;;;5091947;28;20028;-51
2021/12/31 05:01:04;;;;;;;2.35;2.25;;;10.80;99.90;;;;;;5090520;28;20024;-55
2021/12/31 05:03:30;;;;;;;1.90;1.80;;;10.80;99.90;;;;;;5092061;28;20028;-51
2021/12/31 05:05:55;;;;;;;5.32;2.50;;;10.80;99.90;;;;;;5092214;28;20043;-50
2021/12/31 05:08:21;;;;;;;3.47;2.38;;;10.90;99.90;;;;;;5091905;28;20028;-54
2021/12/31 05:10:47;;;;;;;2.95;2.00;;;10.90;99.90;;;;;;5092271;28;20043;-50
2021/12/31 05:13:15;;;;;;;2.50;1.83;;;11.00;99.90;;;;;;5092297;28;20024;-53
2021/12/31 05:15:46;;;;;;;2.53;2.17;;;11.00;99.90;;;;;;5092062;28;20467;-53
2021/12/31 05:18:15;;;;;;;2.33;2.13;;;11.00;99.90;;;;;;5092392;28;20012;-53
2021/12/31 05:20:41;;;;;;;4.25;2.10;;;10.90;99.90;;;;;;5092140;28;20073;-52
2021/12/31 05:23:07;;;;;;;3.33;2.10;;;10.90;99.90;;;;;;5092016;28;20103;-50
2021/12/31 05:25:33;;;;;;;3.05;1.77;;;11.00;99.90;;;;;;5091840;28;20099;-51
2021/12/31 05:27:59;;;;;;;3.33;2.72;;;11.00;99.90;;;;;;5090202;28;20478;-51
2021/12/31 05:30:25;;;;;;;1.95;1.85;;;11.00;99.90;;;;;;5090540;28;20020;-51
2021/12/31 05:32:52;;;;;;;3.00;1.92;;;11.00;99.90;;;;;;5090181;28;20486;-50
2021/12/31 05:35:18;;;;;;;2.00;1.90;;;11.00;99.90;;;;;;5090559;28;20051;-52
2021/12/31 05:37:43;;;;;;;2.05;1.85;;;10.90;99.90;;;;;;5090133;28;20416;-51
2021/12/31 05:40:10;;;;;;;2.20;2.03;;;10.90;99.90;;;;;;5090543;28;20032;-53
2021/12/31 05:42:35;;;;;;;2.10;2.00;;;10.90;99.90;;;;;;5091069;28;20552;-50
2021/12/31 05:45:01;;;;;;;2.75;2.28;;;10.90;99.90;;;;;;5091795;28;20027;-51
2021/12/31 05:47:27;;;;;;;1.90;1.80;;;10.90;99.90;;;;;;5091303;28;20024;-53
2021/12/31 05:49:53;;;;;;;2.00;1.90;;;10.80;99.90;;;;;;5091809;28;20336;-51
2021/12/31 05:52:19;;;;;;;1.98;1.88;;;10.90;99.90;;;;;;5091826;28;20479;-54
2021/12/31 05:54:44;;;;;;;1.77;1.67;;;10.90;99.90;;;;;;5091357;28;20073;-50
2021/12/31 05:57:10;;;;;;;3.80;1.92;;;10.80;99.90;;;;;;5091739;28;20024;-50
2021/12/31 05:59:36;;;;;;;3.13;2.30;;;10.80;99.90;;;;;;5091231;28;20070;-51
2021/12/31 06:02:01;;;;;;;1.90;1.80;;;10.90;99.90;;;;;;5091758;28;20019;-51
2021/12/31 06:04:27;;;;;;;1.85;1.75;;;10.80;99.90;;;;;;5091371;28;20024;-50
2021/12/31 06:06:52;;;;;;;14.85;12.25;;;10.80;99.90;;;;;;5091276;28;20032;-54
2021/12/31 06:09:18;;;;;;;3.88;3.00;;;10.80;99.90;;;;;;5091278;28;20020;-51
2021/12/31 06:11:44;;;;;;;1.90;1.80;;;10.70;99.90;;;;;;5091197;28;20472;-52
2021/12/31 06:14:11;;;;;;;3.53;2.22;;;10.70;99.90;;;;;;5090279;28;20486;-54
2021/12/31 06:16:42;;;;;;;2.30;2.10;;;10.70;99.90;;;;;;5090731;28;20024;-51
2021/12/31 06:19:12;;;;;;;2.53;1.65;;;10.60;99.90;;;;;;5073062;28;20028;-51
2021/12/31 06:21:40;;;;;;;3.17;2.42;;;10.60;99.90;;;;;;5090946;28;20391;-51
2021/12/31 06:24:06;;;;;;;2.30;2.20;;;10.60;99.90;;;;;;5090931;28;20609;-52
2021/12/31 06:26:32;;;;;;;4.97;4.43;;;10.60;99.90;;;;;;5090516;28;20067;-52
2021/12/31 06:28:58;;;;;;;2.20;2.10;;;10.60;99.90;;;;;;5090698;28;20097;-51
2021/12/31 06:31:25;;;;;;;2.20;2.10;;;10.60;99.90;;;;;;5090263;28;20039;-51
2021/12/31 06:33:51;;;;;;;2.38;2.17;;;10.50;99.90;;;;;;5089205;28;20023;-52
2021/12/31 06:36:17;;;;;;;2.22;2.03;;;10.50;99.90;;;;;;5088845;28;20348;-51
2021/12/31 06:38:43;;;;;;;3.25;2.70;;;10.60;99.90;;;;;;5089864;28;20023;-49
2021/12/31 06:41:09;;;;;;;3.53;2.50;;;10.60;99.90;;;;;;5089831;28;20478;-52
2021/12/31 06:43:35;;;;;;;2.22;2.10;;;10.50;99.90;;;;;;5089868;28;20028;-52
2021/12/31 06:46:01;;;;;;;2.55;2.35;;;10.40;99.90;;;;;;5088865;28;20534;-50
2021/12/31 06:48:26;;;;;;;3.88;2.20;;;10.40;99.90;;;;;;5089412;28;20368;-52
2021/12/31 06:50:52;;;;;;;2.38;2.17;;;10.40;99.90;;;;;;5089824;28;20079;-51
2021/12/31 06:53:18;;;;;;;2.05;1.95;;;10.30;99.90;;;;;;5089484;28;20024;-50
2021/12/31 06:55:43;;;;;;;3.38;2.75;;;10.30;99.90;;;;;;5089544;28;20329;-50
2021/12/31 06:58:09;;;;;;;2.85;2.53;;;10.20;99.90;;;;;;5090092;28;20032;-53
2021/12/31 07:00:35;;;;;;;3.38;3.08;;;10.30;99.90;;;;;;5089544;28;20032;-50
2021/12/31 07:03:12;;;;;;;3.40;2.90;;;10.30;99.90;;;;;;5090039;28;20032;-51
2021/12/31 07:05:40;;;;;;;4.47;3.25;;;10.30;99.90;;;;;;5071455;28;20538;-52
2021/12/31 07:08:06;;;;;;;3.22;2.88;;;10.20;99.90;;;;;;5071896;28;20461;-54
2021/12/31 07:10:32;;;;;;;3.03;2.65;;;10.20;99.90;;;;;;5090147;28;20020;-51
2021/12/31 07:13:10;;;;;;;4.53;4.18;;;10.20;99.90;;;;;;5090695;28;20463;-50
2021/12/31 07:15:44;;;;;;;2.20;2.00;;;10.20;99.90;;;;;;5089871;28;20091;-53
2021/12/31 07:18:10;;;;;;;3.22;2.50;;;10.20;99.90;;;;;;5090250;28;20360;-50
2021/12/31 07:20:36;;;;;;;3.78;2.38;;;10.10;99.90;;;;;;5090142;28;20052;-51
2021/12/31 07:23:07;;;;;;;4.80;2.63;;;10.10;99.90;;;;;;5090571;28;20016;-52
2021/12/31 07:25:34;;;;;;;3.25;2.38;;;10.10;99.90;;;;;;5090354;28;20111;-54
2021/12/31 07:28:00;;;;;;;2.72;2.53;;;10.10;99.90;;;;;;5072376;28;20510;-51
2021/12/31 07:30:26;;;;;;;2.55;2.35;;;10.00;99.90;;;;;;5089831;28;20027;-51
2021/12/31 07:32:52;;;;;;;17.45;10.35;;;10.10;99.90;;;;;;5089966;28;20071;-55
2021/12/31 07:35:18;;;;;;;10.75;7.82;;;10.10;99.90;;;;;;5090182;28;20031;-51
2021/12/31 07:37:43;;;;;;;11.45;6.82;;;10.00;99.90;;;;;;5089893;28;20024;-50
2021/12/31 07:40:12;;;;;;;3.63;3.35;;;10.00;99.90;;;;;;5090196;28;20098;-51
2021/12/31 07:42:38;;;;;;;3.88;3.17;;;10.00;99.90;;;;;;5089721;28;20028;-52
2021/12/31 07:45:05;;;;;;;3.25;3.00;;;10.00;99.90;;;;;;5071908;28;20119;-52
2021/12/31 07:47:31;;;;;;;3.03;2.80;;;9.90;99.90;;;;;;5089875;28;20450;-53
2021/12/31 07:49:56;;;;;;;3.28;2.70;;;9.80;99.90;;;;;;5071575;28;20111;-53
2021/12/31 07:52:22;;;;;;;3.80;3.15;;;9.80;99.90;;;;;;5071746;28;20126;-52
2021/12/31 07:54:48;;;;;;;2.70;2.50;;;9.80;99.90;;;;;;5089982;28;20032;-54
2021/12/31 07:57:13;;;;;;;7.82;4.40;;;9.70;99.90;;;;;;5089813;28;20031;-51
2021/12/31 07:59:39;;;;;;;3.78;3.10;;;9.70;99.90;;;;;;5089703;28;20028;-54
2021/12/31 08:02:05;;;;;;;3.35;3.08;;;9.60;99.90;;;;;;5089991;28;20020;-50
2021/12/31 08:04:30;;;;;;;5.00;3.65;;;9.60;99.90;;;;;;5089688;28;20380;-50
2021/12/31 08:06:56;;;;;;;2.60;2.40;;;9.60;99.90;;;;;;5089524;28;20571;-50
2021/12/31 08:09:22;;;;;;;3.00;2.80;;;9.50;99.90;;;;;;5090005;28;20020;-54
2021/12/31 08:11:47;;;;;;;5.15;3.30;;;9.50;99.90;;;;;;5090036;28;20062;-51
2021/12/31 08:14:13;;;;;;;3.40;2.95;;;9.60;99.90;;;;;;5093509;28;20024;-52
2021/12/31 08:16:38;;;;;;;2.97;2.65;;;9.70;99.90;;;;;;5093446;28;20020;-51
2021/12/31 08:19:06;;;;;;;2.90;2.70;;;9.70;99.90;;;;;;5093401;28;20031;-54
2021/12/31 08:21:32;;;;;;;4.55;4.07;;;9.70;99.90;;;;;;5092995;28;20032;-50
2021/12/31 08:23:58;;;;;;;4.03;3.10;;;9.70;99.90;;;;;;5093311;28;20032;-51
2021/12/31 08:26:23;;;;;;;3.00;2.80;;;9.80;99.90;;;;;;5092800;28;20031;-52
2021/12/31 08:28:49;;;;;;;2.90;2.60;;;9.90;99.90;;;;;;5093727;28;20052;-53
2021/12/31 08:31:15;;;;;;;2.78;2.58;;;10.00;99.90;;;;;;5093200;28;20047;-50
2021/12/31 08:33:40;;;;;;;3.67;2.88;;;10.10;99.90;;;;;;5093341;28;20097;-50
2021/12/31 08:36:07;;;;;;;3.90;2.92;;;10.20;99.90;;;;;;5093473;28;20032;-51
2021/12/31 08:38:33;;;;;;;5.13;3.72;;;10.30;99.90;;;;;;5074649;28;20111;-53
2021/12/31 08:41:00;;;;;;;3.55;2.92;;;10.40;99.90;;;;;;5093220;28;20562;-51
2021/12/31 08:43:26;;;;;;;3.00;2.67;;;10.50;99.90;;;;;;5062344;28;20111;-52
2021/12/31 08:45:52;;;;;;;2.97;2.25;;;10.60;99.90;;;;;;5080541;28;20441;-52
2021/12/31 08:48:18;;;;;;;3.08;2.80;;;10.60;99.90;;;;;;5092870;28;20032;-49
2021/12/31 08:50:44;;;;;;;2.72;2.28;;;10.70;99.90;;;;;;5092432;28;20024;-52
2021/12/31 08:53:09;;;;;;;2.78;2.53;;;10.70;99.90;;;;;;5058061;28;20040;-51
2021/12/31 08:55:35;;;;;;;4.25;3.05;;;10.80;99.90;;;;;;5092228;28;20040;-50
2021/12/31 08:58:01;;;;;;;2.63;2.42;;;10.90;99.90;;;;;;5093021;28;20023;-51
2021/12/31 09:00:27;;;;;;;2.60;2.40;;;10.90;99.90;;;;;;5074544;28;20020;-51
2021/12/31 09:02:52;;;;;;;2.63;2.42;;;11.00;99.90;;;;;;5092740;28;20020;-50
2021/12/31 09:05:18;;;;;;;2.45;2.25;;;11.00;99.90;;;;;;5092750;28;20035;-53
2021/12/31 09:07:44;;;;;;;3.03;2.70;;;11.10;99.90;;;;;;5092346;28;20107;-51
2021/12/31 09:10:10;;;;;;;8.02;5.93;;;11.10;99.90;;;;;;5092589;28;20020;-50
2021/12/31 09:12:37;;;;;;;3.10;2.63;;;11.10;99.90;;;;;;5092038;28;20057;-51
2021/12/31 09:15:03;;;;;;;3.47;2.88;;;11.10;99.90;;;;;;5074452;28;20027;-52
2021/12/31 09:17:29;;;;;;;4.68;3.25;;;11.20;99.90;;;;;;5092287;28;20016;-50
2021/12/31 09:19:55;;;;;;;2.72;2.50;;;11.20;99.90;;;;;;5092363;28;20055;-52
2021/12/31 09:22:20;;;;;;;4.35;2.53;;;11.30;99.90;;;;;;5091873;28;20483;-53
2021/12/31 09:24:48;;;;;;;4.25;3.85;;;11.40;99.90;;;;;;5092032;28;20099;-50
2021/12/31 09:27:14;;;;;;;4.35;3.90;;;11.40;99.90;;;;;;5092148;28;20032;-54
2021/12/31 09:29:39;;;;;;;4.50;4.00;;;11.50;99.90;;;;;;5092017;28;20036;-51
2021/12/31 09:32:06;;;;;;;3.10;2.80;;;11.60;99.90;;;;;;5092433;28;20053;-50
2021/12/31 09:34:31;;;;;;;2.58;1.85;;;12.10;99.90;;;;;;5091729;28;20034;-51
2021/12/31 09:36:57;;;;;;;2.05;1.95;;;13.80;99.90;;;;;;5092433;28;20107;-50
2021/12/31 09:39:23;;;;;;;1.98;1.77;;;15.30;99.90;;;;;;5054160;28;20032;-52
2021/12/31 09:41:48;;;;;;;2.08;1.88;;;17.10;99.90;;;;;;5072026;28;20046;-51
2021/12/31 09:44:15;;;;;;;2.25;2.05;;;16.80;99.90;;;;;;5091043;28;20035;-54
2021/12/31 09:46:42;;;;;;;4.35;2.83;;;17.00;99.90;;;;;;5073896;28;20541;-51
2021/12/31 09:49:08;;;;;;;4.00;2.72;;;19.10;98.50;;;;;;5091653;28;20103;-50
2021/12/31 09:51:33;;;;;;;2.13;1.92;;;20.20;95.20;;;;;;5091328;28;20103;-51
2021/12/31 09:54:00;;;;;;;16.25;7.63;;;20.80;92.60;;;;;;5091686;28;20032;-51
2021/12/31 09:56:26;;;;;;;5.97;3.22;;;21.20;91.10;;;;;;5091313;28;20492;-51
2021/12/31 09:58:52;;;;;;;7.70;3.65;;;21.50;87.60;;;;;;5091632;28;20032;-54
2021/12/31 10:01:19;;;;;;;60.90;26.92;;;20.00;89.20;;;;;;5091635;28;20035;-52
2021/12/31 10:04:00;;;;;;;12.20;6.25;;;19.20;92.10;;;;;;5091304;28;20068;-55
2021/12/31 10:06:26;;;;;;;18.17;8.50;;;19.30;92.10;;;;;;5091300;28;20119;-51
2021/12/31 10:08:57;;;;;;;14.27;6.30;;;19.50;90.70;;;;;;5091349;28;20099;-53
2021/12/31 10:11:25;;;;;;;31.52;14.85;;;19.30;90.30;;;;;;5090866;28;20024;-51
2021/12/31 10:13:59;;;;;;;16.30;10.52;;;20.50;89.50;;;;;;5091316;28;20089;-51
2021/12/31 10:16:36;;;;;;;9.80;3.60;;;19.60;88.40;;;;;;5054535;28;20024;-51
2021/12/31 10:19:09;;;;;;;11.27;4.65;;;21.10;86.50;;;;;;5085878;28;20115;-51
2021/12/31 10:21:38;;;;;;;0.98;0.98;;;21.30;81.70;;;;;;5090440;28;20039;-53
2021/12/31 10:24:25;;;;;;;5.22;3.28;;;22.30;79.00;;;;;;5091030;28;20060;-51
2021/12/31 10:27:12;;;;;;;1.00;1.00;;;22.00;78.60;;;;;;5078237;28;20405;-53
2021/12/31 10:29:59;;;;;;;19.70;11.60;;;23.30;75.00;;;;;;5057617;28;20459;-54
2021/12/31 10:32:27;;;;;;;5.57;3.53;;;22.80;74.50;;;;;;5083644;28;20391;-52
2021/12/31 10:35:06;;;;;;;15.50;10.35;;;22.70;72.70;;;;;;5091510;28;20501;-52
2021/12/31 10:37:56;;;;;;;3.58;2.58;;;21.20;73.60;;;;;;5091779;28;20032;-52
2021/12/31 10:40:29;;;;;;;1.30;1.20;;;22.10;73.80;;;;;;5091556;28;20024;-55
2021/12/31 10:43:15;;;;;;;1.23;1.13;;;20.90;74.60;;;;;;5091876;28;20427;-56
2021/12/31 10:46:07;;;;;;;2.72;1.90;;;20.80;74.90;;;;;;5073121;28;20062;-54
2021/12/31 10:48:43;;;;;;;15.50;8.57;;;20.90;74.60;;;;;;5089872;28;20649;-53
2021/12/31 10:51:12;;;;;;;1.25;1.10;;;22.30;70.70;;;;;;5091779;28;20028;-54
2021/12/31 10:53:37;;;;;;;0.82;0.82;;;22.40;72.40;;;;;;5090940;28;20020;-56
2021/12/31 10:56:13;;;;;;;11.18;6.03;;;23.80;67.10;;;;;;5091859;28;20685;-54
2021/12/31 10:58:42;;;;;;;0.77;0.77;;;22.20;67.90;;;;;;5091667;28;20551;-56
2021/12/31 11:01:12;;;;;;;0.80;0.80;;;22.20;70.80;;;;;;5091757;28;20073;-56
2021/12/31 11:03:39;;;;;;;12.85;6.20;;;23.20;68.50;;;;;;5090779;28;20122;-56
2021/12/31 11:06:07;;;;;;;6.68;5.20;;;23.10;67.80;;;;;;5091381;28;20032;-55
2021/12/31 11:08:34;;;;;;;1.30;1.20;;;22.00;68.40;;;;;;5090916;28;20635;-55
2021/12/31 11:11:02;;;;;;;4.63;3.35;;;22.60;67.50;;;;;;5073454;28;20047;-56
2021/12/31 11:13:30;;;;;;;2.50;1.98;;;21.70;68.60;;;;;;5091230;28;20031;-56
2021/12/31 11:15:58;;;;;;;3.88;2.78;;;22.40;66.70;;;;;;5091522;28;20351;-55
2021/12/31 11:18:23;;;;;;;4.85;4.20;;;20.60;69.90;;;;;;5091414;28;20028;-51
2021/12/31 11:20:52;;;;;;;2.92;2.33;;;20.60;71.50;;;;;;5091599;28;20404;-53
2021/12/31 11:23:27;;;;;;;2.13;1.67;;;22.00;69.20;;;;;;5091348;28;20356;-53
2021/12/31 11:26:13;;;;;;;0.52;0.52;;;21.30;70.60;;;;;;5091648;28;20016;-56
2021/12/31 11:28:44;;;;;;;0.90;0.77;;;23.70;64.90;;;;;;5066370;28;20052;-56
2021/12/31 11:31:19;;;;;;;0.93;0.65;;;23.60;63.70;;;;;;5079612;28;20119;-56
2021/12/31 11:34:12;;;;;;;2.75;1.58;;;23.50;64.80;;;;;;5079650;28;20032;-53
2021/12/31 11:36:38;;;;;;;2.78;2.58;;;22.60;66.00;;;;;;5072840;28;20028;-56
2021/12/31 11:39:33;;;;;;;0.50;0.50;;;22.60;66.00;;;;;;5079477;28;20351;-54
2021/12/31 11:42:04;;;;;;;0.70;0.57;;;23.90;62.90;;;;;;5078054;28;20399;-55
2021/12/31 11:44:31;;;;;;;0.63;0.63;;;24.10;62.30;;;;;;5061402;28;20028;-55
2021/12/31 11:47:18;;;;;;;1.08;0.70;;;23.90;61.80;;;;;;5081906;28;20489;-55
2021/12/31 11:49:46;;;;;;;0.73;0.73;;;22.50;65.20;;;;;;5083331;28;20360;-53
2021/12/31 11:52:21;;;;;;;0.85;0.50;;;23.40;63.70;;;;;;5083165;28;20062;-54
2021/12/31 11:55:18;;;;;;;2.55;1.02;;;24.10;62.70;;;;;;5082407;28;20503;-55
2021/12/31 11:57:44;;;;;;;0.75;0.60;;;22.60;63.60;;;;;;5083112;28;20020;-56
2021/12/31 12:00:24;;;;;;;0.60;0.60;;;22.30;65.00;;;;;;5083736;28;20106;-55
2021/12/31 12:02:50;;;;;;;1.17;0.80;;;24.30;61.30;;;;;;5083297;28;20066;-55
2021/12/31 12:05:16;;;;;;;0.95;0.70;;;24.90;59.20;;;;;;5083709;28;20028;-55
2021/12/31 12:07:49;;;;;;;1.15;0.85;;;24.70;61.00;;;;;;5083724;28;20107;-57
2021/12/31 12:10:26;;;;;;;0.65;0.65;;;24.90;58.00;;;;;;5084066;28;20063;-56
2021/12/31 12:12:57;;;;;;;1.73;1.63;;;24.50;60.30;;;;;;5083449;28;20031;-56
2021/12/31 12:15:31;;;;;;;0.70;0.70;;;21.50;64.30;;;;;;5083839;28;20031;-51
2021/12/31 12:21:52;;;;;;;1.70;1.15;;;19.80;71.30;;;;;;5083829;28;20031;-51
2021/12/31 12:24:24;;;;;;;1.73;1.42;;;19.60;74.00;;;;;;5067944;28;20032;-54
2021/12/31 12:26:50;;;;;;;1.00;1.00;;;19.70;73.70;;;;;;5092315;28;20023;-53
2021/12/31 12:29:26;;;;;;;1.98;1.00;;;19.90;73.90;;;;;;5102994;28;20073;-53
2021/12/31 12:32:08;;;;;;;5.07;0.80;;;20.90;71.70;;;;;;5086628;28;20093;-54
2021/12/31 12:34:34;;;;;;;2.20;1.80;;;22.30;67.60;;;;;;5084083;28;20165;-54
2021/12/31 12:37:01;;;;;;;5.90;2.55;;;21.50;67.80;;;;;;5083177;28;20454;-54
2021/12/31 12:39:26;;;;;;;1.85;0.95;;;20.50;70.90;;;;;;5096038;28;20394;-55
2021/12/31 12:41:52;;;;;;;9.57;4.90;;;21.20;70.00;;;;;;5102361;28;20028;-56
2021/12/31 12:44:18;;;;;;;1.15;1.05;;;20.70;70.60;;;;;;5085655;28;20031;-55
2021/12/31 12:46:54;;;;;;;0.85;0.80;;;20.80;71.10;;;;;;5102922;28;20028;-54
2021/12/31 12:49:21;;;;;;;3.92;1.85;;;21.00;71.00;;;;;;5098075;28;20035;-53
2021/12/31 12:51:48;;;;;;;1.50;1.20;;;20.30;72.10;;;;;;5096786;28;20028;-55
2021/12/31 12:54:21;;;;;;;3.10;2.40;;;19.80;74.40;;;;;;5085938;28;20043;-56
2021/12/31 12:56:50;;;;;;;1.48;1.38;;;19.00;76.90;;;;;;5096740;28;20174;-56